Time;durP1;ratioP1;P1;durP2;ratioP2;P2;SDS_P1;SDS_P2;PMS_P1;PMS_P2;Temp;Humidity;BMP_temperature;BMP_pressure;BME280_temperature;BME280_humidity;BME280_pressure;Samples;Min_cycle;Max_cycle;Signal;HPM_P1;HPM_P2
2022/12/06 00:02:01;;;;;;;0.70;0.70;;;4.50;99.90;;;;;;5040759;28;20044;-81
2022/12/06 00:04:27;;;;;;;0.60;0.60;;;4.50;99.90;;;;;;5033772;28;20098;-81
2022/12/06 00:06:53;;;;;;;0.70;0.70;;;4.50;99.90;;;;;;5053917;28;20040;-80
2022/12/06 00:09:23;;;;;;;0.98;0.95;;;4.50;99.90;;;;;;5049351;28;20067;-81
2022/12/06 00:11:49;;;;;;;0.50;0.50;;;4.50;99.90;;;;;;5060612;28;20060;-81
2022/12/06 00:14:15;;;;;;;0.60;0.60;;;4.50;99.90;;;;;;5047105;28;20095;-82
2022/12/06 00:16:50;;;;;;;0.60;0.60;;;4.50;99.90;;;;;;5060617;28;20145;-82
2022/12/06 00:19:20;;;;;;;0.52;0.52;;;4.50;99.90;;;;;;5042940;28;20037;-83
2022/12/06 00:21:46;;;;;;;0.57;0.57;;;4.50;99.90;;;;;;5063975;28;20076;-83
2022/12/06 00:24:15;;;;;;;0.45;0.45;;;4.50;99.90;;;;;;5035193;28;20649;-82
2022/12/06 00:26:44;;;;;;;0.50;0.50;;;4.50;99.90;;;;;;5063805;28;20052;-83
2022/12/06 00:29:15;;;;;;;0.50;0.50;;;4.50;99.90;;;;;;5049207;28;20493;-83
2022/12/06 00:31:41;;;;;;;0.60;0.60;;;4.40;99.90;;;;;;5052923;28;20036;-83
2022/12/06 00:34:07;;;;;;;0.40;0.40;;;4.50;99.90;;;;;;5058593;28;20108;-84
2022/12/06 00:36:36;;;;;;;0.60;0.60;;;4.50;99.90;;;;;;5041816;28;20079;-84
2022/12/06 00:39:08;;;;;;;0.40;0.40;;;4.40;99.90;;;;;;5062368;28;20068;-83
2022/12/06 00:41:34;;;;;;;0.60;0.60;;;4.40;99.90;;;;;;5042070;28;20582;-82
2022/12/06 00:44:00;;;;;;;0.60;0.60;;;4.50;99.90;;;;;;5041916;28;20119;-82
2022/12/06 00:46:31;;;;;;;0.43;0.43;;;4.50;99.90;;;;;;5060078;28;20051;-82
2022/12/06 00:48:58;;;;;;;0.52;0.52;;;4.50;99.90;;;;;;5055221;28;20090;-82
2022/12/06 00:51:26;;;;;;;0.60;0.60;;;4.50;99.90;;;;;;5057749;28;20042;-83
2022/12/06 00:53:52;;;;;;;0.80;0.80;;;4.50;99.90;;;;;;5058017;28;20127;-82
2022/12/06 00:56:19;;;;;;;0.50;0.50;;;4.50;99.90;;;;;;5050579;28;20040;-81
2022/12/06 00:58:45;;;;;;;;;;;4.50;99.90;;;;;;5058313;28;20049;-81
2022/12/06 01:01:12;;;;;;;0.70;0.70;;;4.50;99.90;;;;;;5066257;28;19974;-82
2022/12/06 01:03:39;;;;;;;0.57;0.57;;;4.50;99.90;;;;;;5040545;28;20170;-83
2022/12/06 01:06:11;;;;;;;0.60;0.60;;;4.50;99.90;;;;;;5056271;28;20044;-81
2022/12/06 01:08:38;;;;;;;0.60;0.60;;;4.50;99.90;;;;;;5037493;28;20126;-81
2022/12/06 01:11:05;;;;;;;0.60;0.60;;;4.50;99.90;;;;;;5050423;28;20032;-82
2022/12/06 01:13:31;;;;;;;0.60;0.60;;;4.40;99.90;;;;;;5040937;28;20051;-82
2022/12/06 01:16:04;;;;;;;0.50;0.50;;;4.50;99.90;;;;;;5055377;28;20053;-83
2022/12/06 01:18:29;;;;;;;0.50;0.50;;;5.70;99.90;;;;;;5054617;28;20639;-81
2022/12/06 01:20:55;;;;;;;0.70;0.70;;;4.40;99.90;;;;;;5058646;28;20068;-84
2022/12/06 01:23:21;;;;;;;0.60;0.60;;;5.10;99.90;;;;;;5059086;28;20036;-82
2022/12/06 01:25:53;;;;;;;0.70;0.70;;;4.50;99.90;;;;;;5058152;28;20394;-83
2022/12/06 01:28:18;;;;;;;0.60;0.60;;;4.40;99.90;;;;;;5070336;28;20093;-83
2022/12/06 01:30:44;;;;;;;0.55;0.55;;;4.40;99.90;;;;;;5056000;28;20036;-83
2022/12/06 01:33:10;;;;;;;0.60;0.60;;;4.40;99.90;;;;;;5050481;28;20375;-82
2022/12/06 01:35:41;;;;;;;0.50;0.50;;;4.40;99.90;;;;;;5053339;28;20132;-83
2022/12/06 01:38:08;;;;;;;0.50;0.50;;;4.40;99.90;;;;;;5065868;28;20072;-81
2022/12/06 01:40:44;;;;;;;0.50;0.50;;;4.40;99.90;;;;;;5050697;28;20085;-82
2022/12/06 01:43:39;;;;;;;0.57;0.57;;;4.40;99.90;;;;;;5054710;28;20130;-82
2022/12/06 01:46:26;;;;;;;0.60;0.60;;;4.40;99.90;;;;;;5057135;28;20048;-83
2022/12/06 01:49:02;;;;;;;0.50;0.50;;;4.40;99.90;;;;;;5058825;28;20041;-83
2022/12/06 01:51:28;;;;;;;0.60;0.60;;;4.40;99.90;;;;;;5043974;28;20037;-84
2022/12/06 01:53:54;;;;;;;0.50;0.50;;;4.30;99.90;;;;;;5067791;28;20037;-81
2022/12/06 01:56:20;;;;;;;;;;;5.30;99.90;;;;;;5056345;28;20044;-82
2022/12/06 01:58:49;;;;;;;0.50;0.50;;;4.40;99.90;;;;;;5068134;28;20396;-82
2022/12/06 02:01:15;;;;;;;0.60;0.60;;;4.30;99.90;;;;;;5048560;28;20048;-82
2022/12/06 02:03:42;;;;;;;0.63;0.63;;;4.30;99.90;;;;;;5063365;28;20040;-81
2022/12/06 02:06:09;;;;;;;0.60;0.60;;;5.50;99.90;;;;;;5056435;28;20049;-83
2022/12/06 02:08:36;;;;;;;0.50;0.50;;;4.30;99.90;;;;;;5057726;28;20504;-85
2022/12/06 02:11:04;;;;;;;0.52;0.52;;;4.30;99.90;;;;;;5073869;28;20040;-82
2022/12/06 02:13:32;;;;;;;0.63;0.63;;;4.30;99.90;;;;;;5039021;28;20052;-81
2022/12/06 02:15:57;;;;;;;0.57;0.57;;;4.30;99.90;;;;;;5067510;28;20459;-82
2022/12/06 02:19:01;;;;;;;0.57;0.57;;;4.30;99.90;;;;;;5041024;28;20040;-82
2022/12/06 02:21:42;;;;;;;0.68;0.68;;;4.30;99.90;;;;;;5056637;28;20051;-83
2022/12/06 02:24:45;;;;;;;0.60;0.60;;;4.30;99.90;;;;;;5056327;28;20048;-81
2022/12/06 02:27:24;;;;;;;0.50;0.50;;;4.20;99.90;;;;;;5061478;28;20072;-82
2022/12/06 02:30:09;;;;;;;0.68;0.68;;;4.20;99.90;;;;;;5060264;28;20059;-82
2022/12/06 02:32:53;;;;;;;4.05;1.00;;;4.20;99.90;;;;;;5061401;28;20070;-82
2022/12/06 02:35:39;;;;;;;0.70;0.70;;;4.60;99.90;;;;;;5058214;28;20158;-81
2022/12/06 02:38:09;;;;;;;0.60;0.60;;;4.30;99.90;;;;;;5056419;28;20037;-83
2022/12/06 02:40:40;;;;;;;0.57;0.57;;;4.10;99.90;;;;;;5059077;28;20072;-82
2022/12/06 02:43:16;;;;;;;0.55;0.55;;;4.60;99.90;;;;;;5056982;28;20516;-82
2022/12/06 02:45:50;;;;;;;0.60;0.60;;;4.50;99.90;;;;;;5058444;28;20493;-83
2022/12/06 02:48:18;;;;;;;0.60;0.60;;;4.10;99.90;;;;;;5049863;28;20041;-83
2022/12/06 02:50:49;;;;;;;0.57;0.57;;;4.30;99.90;;;;;;5050456;28;20041;-83
2022/12/06 02:53:19;;;;;;;0.52;0.52;;;4.10;99.90;;;;;;5065821;28;20069;-81
2022/12/06 02:55:46;;;;;;;1.10;1.00;;;4.00;99.90;;;;;;5053518;28;20048;-82
2022/12/06 02:58:12;;;;;;;0.60;0.60;;;4.00;99.90;;;;;;5054600;28;20045;-82
2022/12/06 03:00:42;;;;;;;0.60;0.60;;;4.00;99.90;;;;;;5055731;28;20039;-83
2022/12/06 03:03:29;;;;;;;0.70;0.70;;;4.00;99.90;;;;;;5051138;28;20378;-82
2022/12/06 03:06:01;;;;;;;0.57;0.57;;;4.00;99.90;;;;;;5038370;28;20174;-82
2022/12/06 03:08:35;;;;;;;0.57;0.57;;;3.90;99.90;;;;;;5041905;28;20160;-83
2022/12/06 03:11:02;;;;;;;0.60;0.60;;;3.90;99.90;;;;;;5054283;28;20065;-82
2022/12/06 03:13:47;;;;;;;0.38;0.38;;;3.90;99.90;;;;;;5055187;28;20037;-82
2022/12/06 03:16:25;;;;;;;0.40;0.40;;;3.90;99.90;;;;;;5056680;28;20102;-82
2022/12/06 03:19:00;;;;;;;0.88;0.88;;;3.90;99.90;;;;;;5074828;28;20099;-82
2022/12/06 03:21:35;;;;;;;0.60;0.60;;;3.90;99.90;;;;;;5053931;28;20080;-82
2022/12/06 03:24:05;;;;;;;0.57;0.57;;;4.00;99.90;;;;;;5050931;28;20082;-81
2022/12/06 03:26:33;;;;;;;0.70;0.70;;;4.00;99.90;;;;;;5063673;28;20040;-81
2022/12/06 03:29:00;;;;;;;0.60;0.60;;;4.00;99.90;;;;;;5035607;28;20044;-81
2022/12/06 03:31:29;;;;;;;0.70;0.70;;;4.00;99.90;;;;;;5066110;28;20461;-81
2022/12/06 03:34:00;;;;;;;0.60;0.60;;;4.30;99.90;;;;;;5037477;28;20053;-81
2022/12/06 03:36:27;;;;;;;0.50;0.50;;;4.10;99.90;;;;;;5053276;28;22005;-81
2022/12/06 03:39:04;;;;;;;0.60;0.60;;;4.10;99.90;;;;;;5051812;28;20045;-81
2022/12/06 03:41:42;;;;;;;0.60;0.60;;;4.90;99.90;;;;;;5053030;28;20075;-81
2022/12/06 03:44:08;;;;;;;0.60;0.60;;;3.90;99.90;;;;;;5062880;28;20107;-82
2022/12/06 03:46:37;;;;;;;0.60;0.60;;;3.90;99.90;;;;;;5048694;28;20041;-83
2022/12/06 03:49:16;;;;;;;0.40;0.40;;;3.90;99.90;;;;;;5056417;28;20044;-83
2022/12/06 03:51:43;;;;;;;0.50;0.50;;;3.80;99.90;;;;;;5057005;28;20053;-82
2022/12/06 03:54:09;;;;;;;0.50;0.50;;;4.20;99.90;;;;;;5070133;28;21106;-82
2022/12/06 03:56:36;;;;;;;;;;;3.80;99.90;;;;;;5045071;28;20424;-82
2022/12/06 03:59:07;;;;;;;0.50;0.50;;;3.80;99.90;;;;;;5055404;28;20190;-82
2022/12/06 04:01:33;;;;;;;0.60;0.60;;;4.00;99.90;;;;;;5054102;28;20040;-83
2022/12/06 04:03:59;;;;;;;0.60;0.60;;;3.80;99.90;;;;;;5056463;28;20047;-83
2022/12/06 04:06:25;;;;;;;0.60;0.60;;;3.80;99.90;;;;;;5067790;28;20413;-82
2022/12/06 04:08:50;;;;;;;0.70;0.70;;;4.10;99.90;;;;;;5050841;28;20040;-83
2022/12/06 04:11:16;;;;;;;0.70;0.70;;;3.80;99.90;;;;;;5051855;28;20056;-82
2022/12/06 04:13:42;;;;;;;0.68;0.68;;;3.80;99.90;;;;;;5048307;28;20052;-83
2022/12/06 04:18:52;;;;;;;0.63;0.63;;;4.30;99.90;;;;;;5051187;28;20185;-83
2022/12/06 04:23:57;;;;;;;0.70;0.70;;;4.40;99.90;;;;;;5054365;28;20059;-82
2022/12/06 04:26:23;;;;;;;;;;;4.50;99.90;;;;;;5041217;28;21703;-83
2022/12/06 04:39:48;;;;;;;0.52;0.52;;;3.00;99.90;;;;;;5049956;28;20107;-81
2022/12/06 04:44:58;;;;;;;0.60;0.60;;;2.80;99.90;;;;;;5047424;28;20048;-81
2022/12/06 04:47:23;;;;;;;0.70;0.70;;;2.70;99.90;;;;;;5050053;28;20473;-82
2022/12/06 04:49:49;;;;;;;0.70;0.70;;;2.70;99.90;;;;;;5034749;28;20135;-82
2022/12/06 04:52:15;;;;;;;0.60;0.60;;;2.90;99.90;;;;;;5047691;28;20406;-81
2022/12/06 04:54:41;;;;;;;0.70;0.70;;;2.50;99.90;;;;;;5051036;28;20120;-81
2022/12/06 04:57:10;;;;;;;0.68;0.68;;;2.60;99.90;;;;;;5046479;28;20555;-81
2022/12/06 04:59:41;;;;;;;0.60;0.60;;;3.10;99.90;;;;;;5049862;28;20048;-82
2022/12/06 05:02:10;;;;;;;0.60;0.60;;;2.50;99.90;;;;;;5047310;28;20045;-80
2022/12/06 05:04:36;;;;;;;0.70;0.70;;;3.00;99.90;;;;;;5049887;28;20060;-82
2022/12/06 05:07:02;;;;;;;0.60;0.60;;;2.30;99.90;;;;;;5044271;28;20643;-81
2022/12/06 05:09:28;;;;;;;0.50;0.50;;;2.80;99.90;;;;;;5043382;28;20040;-81
2022/12/06 05:11:54;;;;;;;0.50;0.50;;;2.20;99.90;;;;;;5063543;28;20037;-85
2022/12/06 05:14:20;;;;;;;0.55;0.55;;;2.20;99.90;;;;;;5037149;28;20175;-84
2022/12/06 05:16:46;;;;;;;0.50;0.50;;;2.30;99.90;;;;;;5055656;28;20037;-83
2022/12/06 05:19:12;;;;;;;0.70;0.70;;;2.20;99.90;;;;;;5056802;28;20078;-84
2022/12/06 05:21:38;;;;;;;0.63;0.63;;;2.30;99.90;;;;;;5060078;28;20127;-84
2022/12/06 05:24:04;;;;;;;0.50;0.50;;;2.30;99.90;;;;;;5058628;28;20135;-82
2022/12/06 05:26:30;;;;;;;0.70;0.70;;;2.40;99.90;;;;;;5030083;28;20040;-85
2022/12/06 05:28:57;;;;;;;0.75;0.75;;;2.50;99.90;;;;;;5057207;28;20047;-84
2022/12/06 05:31:24;;;;;;;0.60;0.60;;;2.50;99.90;;;;;;5032059;28;20482;-83
2022/12/06 05:33:51;;;;;;;0.70;0.70;;;2.50;99.90;;;;;;5041465;28;20040;-84
2022/12/06 05:36:21;;;;;;;0.60;0.60;;;2.50;99.90;;;;;;5058990;28;21149;-82
2022/12/06 05:38:48;;;;;;;0.70;0.70;;;2.50;99.90;;;;;;5058832;28;20388;-83
2022/12/06 05:41:14;;;;;;;0.65;0.65;;;2.50;99.90;;;;;;5038814;28;20139;-84
2022/12/06 05:43:40;;;;;;;0.60;0.60;;;2.40;99.90;;;;;;5059902;28;20055;-84
2022/12/06 05:46:06;;;;;;;;;;;2.40;99.90;;;;;;5063870;28;20115;-81
2022/12/06 05:48:31;;;;;;;0.60;0.60;;;2.20;99.90;;;;;;5064481;28;19924;-83
2022/12/06 05:50:57;;;;;;;0.70;0.70;;;2.20;99.90;;;;;;5056165;28;20036;-85
2022/12/06 05:53:23;;;;;;;0.60;0.60;;;2.10;99.90;;;;;;5044625;28;20718;-81
2022/12/06 05:55:49;;;;;;;2.15;2.05;;;2.10;99.90;;;;;;5076299;28;20044;-84
2022/12/06 05:58:16;;;;;;;0.57;0.57;;;1.90;99.90;;;;;;5057080;28;20041;-84
2022/12/06 06:00:45;;;;;;;0.70;0.70;;;1.90;99.90;;;;;;5060181;28;20060;-82
2022/12/06 06:03:11;;;;;;;0.50;0.50;;;1.90;99.90;;;;;;5051523;28;20041;-83
2022/12/06 06:05:37;;;;;;;0.80;0.80;;;2.00;99.90;;;;;;5043473;28;20040;-86
2022/12/06 06:08:02;;;;;;;0.70;0.70;;;2.00;99.90;;;;;;5062780;28;20130;-83
2022/12/06 06:10:28;;;;;;;0.60;0.60;;;2.10;99.90;;;;;;5074139;28;20052;-84
2022/12/06 06:12:54;;;;;;;0.70;0.70;;;2.20;99.90;;;;;;5075764;28;20041;-86
2022/12/06 06:15:19;;;;;;;0.63;0.63;;;2.30;99.90;;;;;;5058038;28;20168;-85
2022/12/06 06:17:45;;;;;;;0.60;0.60;;;2.40;99.90;;;;;;5043213;28;20044;-88
2022/12/06 06:20:12;;;;;;;0.70;0.70;;;2.50;99.90;;;;;;5056662;28;20072;-85
2022/12/06 06:22:40;;;;;;;0.60;0.60;;;2.50;99.90;;;;;;5061020;28;20032;-84
2022/12/06 06:25:07;;;;;;;0.50;0.50;;;3.80;99.90;;;;;;5039070;28;20036;-86
2022/12/06 06:27:36;;;;;;;4.78;1.40;;;2.50;99.90;;;;;;5051194;28;20033;-86
2022/12/06 06:30:07;;;;;;;0.60;0.60;;;3.20;99.90;;;;;;5059024;28;20167;-87
2022/12/06 06:32:33;;;;;;;0.60;0.60;;;2.50;99.90;;;;;;5078312;28;20049;-85
2022/12/06 06:34:59;;;;;;;0.60;0.60;;;2.40;99.90;;;;;;5043309;28;20056;-86
2022/12/06 06:37:25;;;;;;;0.50;0.50;;;2.30;99.90;;;;;;5058123;28;20043;-87
2022/12/06 06:39:51;;;;;;;0.68;0.68;;;2.20;99.90;;;;;;5042417;28;20054;-84
2022/12/06 06:42:16;;;;;;;0.68;0.68;;;2.10;99.90;;;;;;5059350;28;20136;-82
2022/12/06 06:44:43;;;;;;;0.65;0.65;;;2.00;99.90;;;;;;5042802;28;20508;-83
2022/12/06 06:47:09;;;;;;;0.65;0.65;;;2.10;99.90;;;;;;5067009;28;20043;-84
2022/12/06 06:49:35;;;;;;;0.70;0.70;;;1.80;99.90;;;;;;5057411;28;20045;-82
2022/12/06 06:52:00;;;;;;;0.63;0.63;;;1.60;99.90;;;;;;5039642;28;20036;-83
2022/12/06 06:54:29;;;;;;;0.70;0.70;;;1.50;99.90;;;;;;5071471;28;20037;-85
2022/12/06 06:56:55;;;;;;;0.50;0.50;;;1.40;99.90;;;;;;5040104;28;20497;-83
2022/12/06 06:59:22;;;;;;;0.60;0.60;;;1.30;99.90;;;;;;5051023;28;20044;-82
2022/12/06 07:01:48;;;;;;;0.70;0.70;;;1.20;99.90;;;;;;5059867;28;20058;-83
2022/12/06 07:04:14;;;;;;;0.70;0.70;;;1.10;99.90;;;;;;5059643;28;20037;-83
2022/12/06 07:06:40;;;;;;;0.80;0.80;;;1.50;99.90;;;;;;5059359;28;20095;-83
2022/12/06 07:09:06;;;;;;;0.60;0.60;;;1.10;99.90;;;;;;5060426;28;20041;-81
2022/12/06 07:11:31;;;;;;;0.60;0.60;;;1.10;99.90;;;;;;5041663;28;20043;-83
2022/12/06 07:13:57;;;;;;;0.70;0.70;;;1.30;99.90;;;;;;5054365;28;20040;-83
2022/12/06 07:16:23;;;;;;;0.70;0.70;;;1.30;99.90;;;;;;5061101;28;20052;-83
2022/12/06 07:18:49;;;;;;;0.68;0.68;;;1.30;99.90;;;;;;5042836;28;20044;-84
2022/12/06 07:21:15;;;;;;;0.70;0.70;;;2.00;99.90;;;;;;5057520;28;20045;-83
2022/12/06 07:23:41;;;;;;;0.70;0.70;;;1.40;99.90;;;;;;5059859;28;20059;-83
2022/12/06 07:26:14;;;;;;;0.50;0.50;;;1.50;99.90;;;;;;5041131;28;20075;-83
2022/12/06 07:28:41;;;;;;;0.70;0.70;;;2.30;99.90;;;;;;5063798;28;20079;-83
2022/12/06 07:31:27;;;;;;;0.65;0.65;;;1.50;99.90;;;;;;5059816;28;20048;-82
2022/12/06 07:33:56;;;;;;;0.70;0.70;;;1.40;99.90;;;;;;5054823;28;20044;-82
2022/12/06 07:36:22;;;;;;;0.70;0.70;;;1.40;99.90;;;;;;5055905;28;20032;-82
2022/12/06 07:38:50;;;;;;;0.50;0.50;;;2.10;99.90;;;;;;5071298;28;20060;-84
2022/12/06 07:46:48;;;;;;;0.60;0.60;;;1.30;99.90;;;;;;5072589;28;20322;-83
2022/12/06 07:49:17;;;;;;;0.63;0.63;;;1.50;99.90;;;;;;5058787;28;20363;-82
2022/12/06 07:51:44;;;;;;;0.60;0.60;;;1.40;99.90;;;;;;5047704;28;20048;-83
2022/12/06 07:54:10;;;;;;;0.60;0.60;;;1.50;99.90;;;;;;5067473;28;20044;-82
2022/12/06 07:56:36;;;;;;;0.65;0.65;;;1.50;99.90;;;;;;5062771;28;20128;-84
2022/12/06 07:59:02;;;;;;;0.70;0.70;;;1.70;99.90;;;;;;5075436;28;20056;-84
2022/12/06 08:01:27;;;;;;;;;;;1.80;99.90;;;;;;5045145;28;20035;-88
2022/12/06 08:03:55;;;;;;;0.73;0.73;;;1.90;99.90;;;;;;5059883;28;20435;-86
2022/12/06 08:06:22;;;;;;;0.70;0.70;;;2.00;99.90;;;;;;5056745;28;20075;-86
2022/12/06 08:08:47;;;;;;;0.70;0.70;;;2.10;99.90;;;;;;5070413;28;20043;-84
2022/12/06 08:11:13;;;;;;;0.65;0.65;;;2.10;99.90;;;;;;5070837;28;20044;-86
2022/12/06 08:13:39;;;;;;;0.68;0.68;;;3.10;99.90;;;;;;5043398;28;20048;-85
2022/12/06 08:16:13;;;;;;;1.15;1.15;;;2.30;99.90;;;;;;5048740;28;20048;-88
2022/12/06 08:18:40;;;;;;;0.70;0.70;;;2.30;99.90;;;;;;5057053;28;20458;-84
2022/12/06 08:21:06;;;;;;;0.70;0.70;;;2.40;99.90;;;;;;5048918;28;20042;-86
2022/12/06 08:23:32;;;;;;;0.60;0.60;;;2.40;99.90;;;;;;5065957;28;20075;-83
2022/12/06 08:26:07;;;;;;;0.60;0.60;;;2.50;99.90;;;;;;5034604;28;20045;-83
2022/12/06 08:28:34;;;;;;;0.50;0.50;;;2.60;99.90;;;;;;5059392;28;20036;-83
2022/12/06 08:31:09;;;;;;;0.60;0.60;;;2.60;99.90;;;;;;5070081;28;20475;-82
2022/12/06 08:33:35;;;;;;;0.70;0.70;;;2.60;99.90;;;;;;5057330;28;20040;-83
2022/12/06 08:36:07;;;;;;;;;;;2.60;99.90;;;;;;5071778;28;20371;-84
2022/12/06 08:38:34;;;;;;;0.70;0.70;;;2.60;99.90;;;;;;5075475;28;19930;-85
2022/12/06 08:40:59;;;;;;;0.50;0.50;;;2.60;99.90;;;;;;5039512;28;20087;-84
2022/12/06 08:43:25;;;;;;;0.70;0.70;;;3.80;99.90;;;;;;5057356;28;20064;-83
2022/12/06 08:45:51;;;;;;;0.80;0.80;;;2.70;99.90;;;;;;5061243;28;20663;-84
2022/12/06 08:48:17;;;;;;;0.60;0.60;;;2.60;99.90;;;;;;5045204;28;20762;-83
2022/12/06 08:50:43;;;;;;;0.80;0.80;;;2.70;99.90;;;;;;5045413;28;20128;-85
2022/12/06 08:53:08;;;;;;;0.60;0.60;;;2.70;99.90;;;;;;5059847;28;20051;-85
2022/12/06 08:55:34;;;;;;;0.75;0.75;;;2.60;99.90;;;;;;5032330;28;20044;-83
2022/12/06 08:58:00;;;;;;;0.70;0.70;;;2.70;99.90;;;;;;5052456;28;20119;-84
2022/12/06 09:00:25;;;;;;;0.70;0.70;;;2.80;99.90;;;;;;5059590;28;20041;-86
2022/12/06 09:02:51;;;;;;;0.70;0.70;;;2.80;99.90;;;;;;5040151;28;20045;-84
2022/12/06 09:05:17;;;;;;;0.80;0.80;;;2.80;99.90;;;;;;5068802;28;20036;-85
2022/12/06 09:07:42;;;;;;;0.60;0.60;;;2.90;99.90;;;;;;5052009;28;20036;-85
2022/12/06 09:10:08;;;;;;;0.63;0.63;;;3.00;99.90;;;;;;5075582;28;20411;-85
2022/12/06 09:12:34;;;;;;;;;;;3.00;99.90;;;;;;5065329;28;20067;-84
2022/12/06 09:15:00;;;;;;;0.60;0.60;;;3.00;99.90;;;;;;5067076;28;20297;-83
2022/12/06 09:17:25;;;;;;;0.60;0.60;;;3.00;99.90;;;;;;5039112;28;20122;-85
2022/12/06 09:19:51;;;;;;;1.15;1.15;;;3.00;99.90;;;;;;5075175;28;20056;-83
2022/12/06 09:22:17;;;;;;;0.60;0.60;;;3.70;99.90;;;;;;5081425;28;20058;-83
2022/12/06 09:24:42;;;;;;;0.70;0.70;;;3.00;99.90;;;;;;5078229;28;20890;-84
2022/12/06 09:27:08;;;;;;;0.50;0.50;;;3.20;99.90;;;;;;5075106;28;20118;-83
2022/12/06 09:29:36;;;;;;;0.70;0.70;;;3.00;99.90;;;;;;5059870;28;20048;-85
2022/12/06 09:32:02;;;;;;;0.60;0.60;;;3.10;99.90;;;;;;5061746;28;20049;-84
2022/12/06 09:34:27;;;;;;;0.60;0.60;;;3.20;99.90;;;;;;5086696;28;20036;-85
2022/12/06 09:37:00;;;;;;;0.60;0.60;;;3.30;99.90;;;;;;5051605;28;20052;-85
2022/12/06 09:39:31;;;;;;;0.70;0.70;;;3.30;99.90;;;;;;5062005;28;20571;-85
2022/12/06 09:42:02;;;;;;;0.60;0.60;;;3.60;99.90;;;;;;5061716;28;20127;-84
2022/12/06 09:44:43;;;;;;;0.60;0.60;;;3.70;99.90;;;;;;5066085;28;20049;-85
2022/12/06 09:47:21;;;;;;;0.68;0.68;;;3.80;99.90;;;;;;5064734;28;20542;-84
2022/12/06 09:49:46;;;;;;;0.52;0.52;;;4.20;99.90;;;;;;5067904;28;20066;-85
2022/12/06 09:52:42;;;;;;;0.80;0.80;;;3.80;99.90;;;;;;5049949;28;20048;-84
2022/12/06 09:55:14;;;;;;;0.68;0.68;;;3.70;99.90;;;;;;5062071;28;20036;-83
2022/12/06 09:57:56;;;;;;;0.60;0.60;;;3.80;99.90;;;;;;5053766;28;20383;-83
2022/12/06 10:00:23;;;;;;;0.70;0.70;;;3.80;99.90;;;;;;5065938;28;20047;-86
2022/12/06 10:03:30;;;;;;;0.50;0.50;;;3.90;99.90;;;;;;5068590;28;20124;-83
2022/12/06 10:06:07;;;;;;;0.73;0.73;;;3.90;99.90;;;;;;5070679;28;20048;-86
2022/12/06 10:08:58;;;;;;;0.70;0.70;;;4.00;99.90;;;;;;5063703;28;20080;-85
2022/12/06 10:11:44;;;;;;;0.63;0.63;;;4.10;99.90;;;;;;5057971;28;20045;-85
2022/12/06 10:14:13;;;;;;;0.70;0.70;;;4.10;99.90;;;;;;5086908;28;20055;-86
2022/12/06 10:17:08;;;;;;;0.50;0.50;;;4.20;99.90;;;;;;5064768;28;20185;-85
2022/12/06 10:19:56;;;;;;;0.60;0.60;;;4.20;99.90;;;;;;5049132;28;20049;-85
2022/12/06 10:22:50;;;;;;;0.50;0.50;;;4.30;99.90;;;;;;5079866;28;20037;-84
2022/12/06 10:25:26;;;;;;;0.65;0.65;;;4.40;99.90;;;;;;5065389;28;20040;-84
2022/12/06 10:28:13;;;;;;;0.70;0.70;;;4.50;99.90;;;;;;5049414;28;20097;-85
2022/12/06 10:30:48;;;;;;;0.50;0.50;;;4.50;99.90;;;;;;5077889;28;20401;-85
2022/12/06 10:33:20;;;;;;;0.50;0.50;;;4.60;99.90;;;;;;5072533;28;20450;-84
2022/12/06 10:36:07;;;;;;;0.60;0.60;;;4.60;99.90;;;;;;5079872;28;20051;-83
2022/12/06 10:38:36;;;;;;;0.70;0.70;;;4.60;99.90;;;;;;5057723;28;20064;-83
2022/12/06 10:41:14;;;;;;;0.63;0.63;;;4.70;99.90;;;;;;5068503;28;20200;-82
2022/12/06 10:43:45;;;;;;;0.55;0.55;;;4.70;99.90;;;;;;5060528;28;20079;-84
2022/12/06 10:49:38;;;;;;;0.80;0.80;;;5.00;99.90;;;;;;5077274;28;20068;-83
2022/12/06 10:52:23;;;;;;;0.68;0.68;;;5.00;99.90;;;;;;5059655;28;20138;-82
2022/12/06 10:54:54;;;;;;;0.60;0.60;;;5.10;99.90;;;;;;5062556;28;20048;-85
2022/12/06 10:57:58;;;;;;;0.57;0.57;;;5.10;99.90;;;;;;5057619;28;20051;-84
2022/12/06 11:00:27;;;;;;;0.60;0.60;;;5.20;99.90;;;;;;5072547;28;20067;-84
2022/12/06 11:03:16;;;;;;;0.63;0.63;;;5.30;99.90;;;;;;5058866;28;20100;-84
2022/12/06 11:06:10;;;;;;;0.70;0.70;;;5.10;99.90;;;;;;5059102;28;20083;-83
2022/12/06 11:08:45;;;;;;;0.70;0.70;;;5.00;99.90;;;;;;5070205;28;20048;-84
2022/12/06 11:11:31;;;;;;;1.27;1.27;;;5.90;99.90;;;;;;5062102;28;20045;-84
2022/12/06 11:14:04;;;;;;;0.55;0.55;;;5.40;99.90;;;;;;5061105;28;20047;-84
2022/12/06 11:16:35;;;;;;;0.63;0.63;;;5.20;99.90;;;;;;5059982;28;20120;-84
2022/12/06 11:19:18;;;;;;;0.60;0.60;;;5.40;99.90;;;;;;5037988;28;20556;-84
2022/12/06 11:22:01;;;;;;;0.57;0.57;;;5.60;99.90;;;;;;5040942;28;20437;-83
2022/12/06 11:24:37;;;;;;;0.60;0.60;;;5.70;99.90;;;;;;5059912;28;20040;-83
2022/12/06 11:27:22;;;;;;;0.50;0.50;;;5.80;99.90;;;;;;5056871;28;20051;-83
2022/12/06 11:29:49;;;;;;;0.63;0.63;;;5.80;99.90;;;;;;5071085;28;20126;-87
2022/12/06 11:32:16;;;;;;;0.60;0.60;;;5.70;99.90;;;;;;5051472;28;21713;-85
2022/12/06 11:34:50;;;;;;;0.60;0.60;;;5.60;99.90;;;;;;5055984;28;20053;-85
2022/12/06 11:37:19;;;;;;;0.52;0.52;;;5.50;99.90;;;;;;5041120;28;20504;-84
2022/12/06 11:39:47;;;;;;;1.08;1.08;;;5.50;99.90;;;;;;5055759;28;20093;-86
2022/12/06 11:42:17;;;;;;;0.70;0.70;;;5.60;99.90;;;;;;5043158;28;20048;-84
2022/12/06 11:44:47;;;;;;;0.60;0.60;;;5.70;99.90;;;;;;5044740;28;20784;-86
2022/12/06 11:47:20;;;;;;;0.43;0.43;;;5.70;99.90;;;;;;5067436;28;20090;-84
2022/12/06 11:49:48;;;;;;;1.00;1.00;;;5.70;99.90;;;;;;5050574;28;20040;-84
2022/12/06 11:52:18;;;;;;;0.60;0.60;;;5.70;99.90;;;;;;5072074;28;20036;-85
2022/12/06 11:55:01;;;;;;;0.57;0.57;;;5.70;99.90;;;;;;5060482;28;20036;-83
2022/12/06 11:57:34;;;;;;;0.60;0.60;;;5.70;99.90;;;;;;5083214;28;20434;-85
2022/12/06 12:00:11;;;;;;;0.55;0.55;;;6.60;99.90;;;;;;5054328;28;20051;-85
2022/12/06 12:02:37;;;;;;;0.55;0.55;;;5.90;99.90;;;;;;5056998;28;20033;-83
2022/12/06 12:05:13;;;;;;;0.60;0.60;;;5.90;99.90;;;;;;5059937;28;20369;-86
2022/12/06 12:07:41;;;;;;;0.55;0.55;;;6.00;99.90;;;;;;5069419;28;20767;-86
2022/12/06 12:10:30;;;;;;;0.57;0.57;;;6.10;99.90;;;;;;5045237;28;20072;-85
2022/12/06 12:15:52;;;;;;;0.50;0.50;;;6.20;99.90;;;;;;5073748;28;20060;-86
2022/12/06 12:18:33;;;;;;;1.15;1.15;;;6.20;99.90;;;;;;5063351;28;20132;-83
2022/12/06 12:21:01;;;;;;;0.60;0.60;;;6.10;99.90;;;;;;5057113;28;20049;-87
2022/12/06 12:23:32;;;;;;;0.57;0.57;;;6.10;99.90;;;;;;5065954;28;20090;-83
2022/12/06 12:26:10;;;;;;;0.50;0.50;;;6.10;99.90;;;;;;5066700;28;20048;-83
2022/12/06 12:28:39;;;;;;;0.60;0.60;;;6.10;99.90;;;;;;5065745;28;20041;-85
2022/12/06 12:31:10;;;;;;;0.70;0.70;;;6.20;99.90;;;;;;5075710;28;20059;-83
2022/12/06 12:33:36;;;;;;;0.40;0.40;;;6.90;99.90;;;;;;5075336;28;20074;-84
2022/12/06 12:36:01;;;;;;;0.50;0.50;;;6.30;99.90;;;;;;5052413;28;20040;-84
2022/12/06 12:38:41;;;;;;;0.77;0.77;;;6.20;99.90;;;;;;5045862;28;20131;-84
2022/12/06 12:41:38;;;;;;;0.52;0.52;;;6.20;99.90;;;;;;5062552;28;20055;-83
2022/12/06 12:44:31;;;;;;;0.70;0.70;;;6.20;99.90;;;;;;5057814;28;20097;-83
2022/12/06 12:47:04;;;;;;;0.50;0.50;;;6.30;99.90;;;;;;5060000;28;20047;-85
2022/12/06 12:49:35;;;;;;;1.13;1.13;;;6.30;99.90;;;;;;5071846;28;20041;-85
2022/12/06 12:52:22;;;;;;;0.47;0.47;;;6.30;99.90;;;;;;5044514;28;20045;-84
2022/12/06 12:55:20;;;;;;;0.52;0.52;;;6.40;99.90;;;;;;5074494;28;20044;-84
2022/12/06 12:57:54;;;;;;;0.50;0.50;;;6.40;99.90;;;;;;5032594;28;20048;-85
2022/12/06 13:00:24;;;;;;;0.50;0.50;;;6.40;99.90;;;;;;5059779;28;20037;-84
2022/12/06 13:02:56;;;;;;;0.60;0.60;;;6.40;99.90;;;;;;5059104;28;20137;-84
2022/12/06 13:05:31;;;;;;;0.50;0.50;;;6.40;99.90;;;;;;5065145;28;20047;-84
2022/12/06 13:08:23;;;;;;;0.75;0.75;;;6.40;99.90;;;;;;5042534;28;20037;-84
2022/12/06 13:10:54;;;;;;;0.50;0.50;;;6.40;99.90;;;;;;5059064;28;20400;-84
2022/12/06 13:13:32;;;;;;;0.50;0.50;;;6.40;99.90;;;;;;5055017;28;20044;-84
2022/12/06 13:16:00;;;;;;;0.65;0.65;;;6.40;99.90;;;;;;5045173;28;20044;-84
2022/12/06 13:18:41;;;;;;;0.60;0.60;;;6.40;99.90;;;;;;5070569;28;20048;-84
2022/12/06 13:21:33;;;;;;;0.40;0.40;;;6.40;99.90;;;;;;5054940;28;20056;-84
2022/12/06 13:24:10;;;;;;;0.60;0.60;;;6.40;99.90;;;;;;5056381;28;20485;-84
2022/12/06 13:26:58;;;;;;;0.88;0.88;;;6.50;99.90;;;;;;5073975;28;20111;-83
2022/12/06 13:29:37;;;;;;;0.57;0.57;;;6.50;99.90;;;;;;5055360;28;20044;-85
2022/12/06 13:32:35;;;;;;;0.50;0.50;;;6.50;99.90;;;;;;5028267;28;20045;-83
2022/12/06 13:35:07;;;;;;;;;;;6.50;99.90;;;;;;5064317;28;20150;-83
2022/12/06 13:37:41;;;;;;;0.60;0.60;;;6.50;99.90;;;;;;5074970;28;19920;-84
2022/12/06 13:40:36;;;;;;;0.70;0.70;;;6.50;99.90;;;;;;5057664;28;20051;-84
2022/12/06 13:43:05;;;;;;;0.60;0.60;;;6.50;99.90;;;;;;5059410;28;20049;-83
2022/12/06 13:45:42;;;;;;;0.52;0.52;;;6.50;99.90;;;;;;5054005;28;20115;-82
2022/12/06 13:48:55;;;;;;;0.60;0.60;;;6.50;99.90;;;;;;5058191;28;20664;-83
2022/12/06 13:51:30;;;;;;;0.50;0.50;;;6.50;99.90;;;;;;5049828;28;20055;-84
2022/12/06 13:54:05;;;;;;;0.55;0.55;;;6.40;99.90;;;;;;5060243;28;20052;-84